createdAt,value
2019-01-24T00:04:05.782Z,-2.50
2019-01-24T00:09:09.228Z,-2.50
2019-01-24T00:14:12.648Z,-2.50
2019-01-24T00:19:16.128Z,-2.50
2019-01-24T00:24:19.518Z,-2.50
2019-01-24T00:29:22.907Z,-2.50
2019-01-24T00:34:26.287Z,-2.50
2019-01-24T00:39:29.684Z,-2.50
2019-01-24T00:44:33.066Z,-2.50
2019-01-24T00:49:36.463Z,-2.50
2019-01-24T00:54:39.852Z,-2.50
2019-01-24T00:59:43.231Z,-2.50
2019-01-24T01:04:46.620Z,-2.50
2019-01-24T01:09:50.006Z,-2.40
2019-01-24T01:14:53.383Z,-2.40
2019-01-24T01:19:56.770Z,-2.40
2019-01-24T01:25:00.206Z,-2.40
2019-01-24T01:30:05.426Z,-2.40
2019-01-24T01:35:09.058Z,-2.40
2019-01-24T01:40:14.788Z,-2.40
2019-01-24T01:45:19.926Z,-2.40
2019-01-24T01:50:24.646Z,-2.40
2019-01-24T01:55:28.046Z,-2.40
2019-01-24T02:00:31.511Z,-2.40
2019-01-24T02:05:34.968Z,-2.40
2019-01-24T02:10:38.443Z,-2.40
2019-01-24T02:15:41.831Z,-2.40
2019-01-24T02:20:45.224Z,-2.40
2019-01-24T02:25:48.607Z,-2.40
2019-01-24T02:30:51.982Z,-2.40
2019-01-24T02:35:55.373Z,-2.40
2019-01-24T02:40:58.754Z,-2.40
2019-01-24T02:46:02.143Z,-2.40
2019-01-24T02:51:05.540Z,-2.40
2019-01-24T02:56:09.000Z,-2.40
2019-01-24T03:01:12.404Z,-2.40
2019-01-24T03:06:15.786Z,-2.40
2019-01-24T03:11:19.168Z,-2.40
2019-01-24T03:16:22.563Z,-2.40
2019-01-24T03:21:25.951Z,-2.40
2019-01-24T03:26:29.334Z,-2.40
2019-01-24T03:31:32.721Z,-2.40
2019-01-24T03:36:36.116Z,-2.40
2019-01-24T03:41:39.495Z,-2.40
2019-01-24T03:46:42.884Z,-2.40
2019-01-24T03:51:46.280Z,-2.40
2019-01-24T03:56:49.671Z,-2.40
2019-01-24T04:01:53.063Z,-2.40
2019-01-24T04:06:56.476Z,-2.40
2019-01-24T04:11:59.869Z,-2.40
2019-01-24T04:17:03.274Z,-2.40
2019-01-24T04:22:06.662Z,-2.40
2019-01-24T04:27:10.047Z,-2.50
2019-01-24T04:32:13.434Z,-2.40
2019-01-24T04:37:16.815Z,-2.50
2019-01-24T04:42:20.209Z,-2.40
2019-01-24T04:47:23.599Z,-2.40
2019-01-24T04:52:26.995Z,-2.40
2019-01-24T04:57:30.371Z,-2.40
2019-01-24T05:02:33.784Z,-2.50
2019-01-24T05:07:37.175Z,-2.50
2019-01-24T05:12:40.570Z,-2.50
2019-01-24T05:17:44.807Z,-2.50
2019-01-24T05:22:48.187Z,-2.50
2019-01-24T05:27:51.580Z,-2.50
2019-01-24T05:32:55.414Z,-2.50
2019-01-24T05:37:58.963Z,-2.50
2019-01-24T05:43:02.351Z,-2.50
2019-01-24T05:48:05.810Z,-2.50
2019-01-24T05:53:09.206Z,-2.50
2019-01-24T05:58:12.591Z,-2.50
2019-01-24T06:03:15.986Z,-2.50
2019-01-24T06:08:19.393Z,-2.50
2019-01-24T06:13:22.827Z,-2.50
2019-01-24T06:18:26.211Z,-2.50
2019-01-24T06:23:29.599Z,-2.50
2019-01-24T06:28:32.983Z,-2.50
2019-01-24T06:33:36.385Z,-2.50
2019-01-24T06:38:39.758Z,-2.50
2019-01-24T06:43:43.147Z,-2.50
2019-01-24T06:48:46.527Z,-2.50
2019-01-24T06:53:49.938Z,-2.50
2019-01-24T06:58:53.335Z,-2.50
2019-01-24T07:03:56.742Z,-2.50
2019-01-24T07:09:00.128Z,-2.50
2019-01-24T07:14:03.525Z,-2.50
2019-01-24T07:19:06.908Z,-2.50
2019-01-24T07:24:10.291Z,-2.50
2019-01-24T07:29:13.682Z,-2.50
2019-01-24T07:34:17.072Z,-2.50
2019-01-24T07:39:20.459Z,-2.50
2019-01-24T07:44:23.841Z,-2.50
2019-01-24T07:49:27.224Z,-2.50
2019-01-24T07:54:30.608Z,-2.50
2019-01-24T07:59:33.990Z,-2.50
2019-01-24T08:04:37.389Z,-2.50
2019-01-24T08:09:40.779Z,-2.50
2019-01-24T08:14:44.167Z,-2.50
2019-01-24T08:19:47.563Z,-2.50
2019-01-24T08:24:50.943Z,-2.50
2019-01-24T08:29:54.515Z,-2.50
2019-01-24T08:34:57.903Z,-2.50
2019-01-24T08:40:01.346Z,-2.50
2019-01-24T08:45:07.790Z,-2.40
2019-01-24T08:50:16.334Z,-2.40
2019-01-24T08:55:27.880Z,-2.40
2019-01-24T09:00:31.270Z,-2.40
2019-01-24T09:05:34.726Z,-2.40
2019-01-24T09:10:38.868Z,-2.30
2019-01-24T09:15:42.263Z,-2.30
2019-01-24T09:20:45.645Z,-2.30
2019-01-24T09:25:49.051Z,-2.20
2019-01-24T09:30:52.451Z,-2.20
2019-01-24T09:35:55.844Z,-2.20
2019-01-24T09:40:59.233Z,-2.20
2019-01-24T09:46:02.637Z,-2.10
2019-01-24T09:51:06.024Z,-2.10
2019-01-24T09:56:09.423Z,-2.10
2019-01-24T10:01:13.068Z,-2.00
2019-01-24T10:06:16.475Z,-2.00
2019-01-24T10:11:23.509Z,-2.00
2019-01-24T10:16:24.988Z,-1.90
2019-01-24T10:21:28.379Z,-1.90
2019-01-24T10:26:31.763Z,-1.90
2019-01-24T10:31:35.161Z,-1.80
2019-01-24T10:36:42.981Z,-1.80
2019-01-24T10:41:43.663Z,-1.80
2019-01-24T10:46:47.054Z,-1.70
2019-01-24T10:51:50.442Z,-1.70
2019-01-24T10:56:53.851Z,-1.60
2019-01-24T11:01:57.291Z,-1.60
2019-01-24T11:07:00.675Z,-1.60
2019-01-24T11:12:04.240Z,-1.50
2019-01-24T11:17:07.620Z,-1.50
2019-01-24T11:22:11.007Z,-1.50
2019-01-24T11:27:14.399Z,-1.40
2019-01-24T11:32:17.856Z,-1.40
2019-01-24T11:37:21.243Z,-1.40
2019-01-24T11:42:24.630Z,-1.40
2019-01-24T11:47:28.055Z,-1.30
2019-01-24T11:52:31.507Z,-1.30
2019-01-24T11:57:34.871Z,-1.30
2019-01-24T12:02:39.850Z,-1.20
2019-01-24T12:07:43.438Z,-1.20
2019-01-24T12:12:46.836Z,-1.20
2019-01-24T12:17:50.243Z,-1.20
2019-01-24T12:22:53.771Z,-1.10
2019-01-24T12:27:57.167Z,-1.10
2019-01-24T12:33:01.009Z,-1.00
2019-01-24T12:38:04.655Z,-1.00
2019-01-24T12:43:08.060Z,-1.00
2019-01-24T12:48:11.447Z,-0.90
2019-01-24T12:53:14.857Z,-0.90
2019-01-24T12:58:18.246Z,-0.90
2019-01-24T13:03:21.643Z,-0.80
2019-01-24T13:08:25.043Z,-0.80
2019-01-24T13:13:28.440Z,-0.70
2019-01-24T13:18:31.835Z,-0.70
2019-01-24T13:23:35.236Z,-0.70
2019-01-24T13:28:38.641Z,-0.60
2019-01-24T13:33:42.023Z,-0.60
2019-01-24T13:38:45.423Z,-0.50
2019-01-24T13:43:48.808Z,-0.50
2019-01-24T13:48:52.206Z,-0.40
2019-01-24T13:53:55.595Z,-0.40
2019-01-24T13:58:58.983Z,-0.40
2019-01-24T14:04:05.179Z,-0.40
2019-01-24T14:09:09.514Z,-0.40
2019-01-24T14:14:12.907Z,-0.30
2019-01-24T14:19:16.282Z,-0.40
2019-01-24T14:24:19.666Z,-0.40
2019-01-24T14:29:23.138Z,-0.40
2019-01-24T14:34:26.531Z,-0.40
2019-01-24T14:39:29.919Z,-0.40
2019-01-24T14:44:33.305Z,-0.40
2019-01-24T14:49:36.695Z,-0.40
2019-01-24T14:54:40.088Z,-0.40
2019-01-24T14:59:43.470Z,-0.50
2019-01-24T15:04:46.856Z,-0.50
2019-01-24T15:09:50.239Z,-0.50
2019-01-24T15:14:53.631Z,-0.50
2019-01-24T15:19:57.028Z,-0.60
2019-01-24T15:25:00.453Z,-0.60
2019-01-24T15:30:05.668Z,-0.60
2019-01-24T15:35:09.190Z,-0.60
2019-01-24T15:40:24.294Z,-0.70
2019-01-24T15:45:27.859Z,-0.70
2019-01-24T15:50:31.252Z,-0.70
2019-01-24T15:55:34.723Z,-0.80
2019-01-24T16:00:38.280Z,-0.80
2019-01-24T16:05:41.675Z,-0.80
2019-01-24T16:10:45.063Z,-0.90
2019-01-24T16:15:48.455Z,-0.90
2019-01-24T16:20:51.840Z,-1.00
2019-01-24T16:25:55.240Z,-1.00
2019-01-24T16:30:58.633Z,-1.00
2019-01-24T16:36:02.006Z,-1.00
2019-01-24T16:41:05.471Z,-1.10
2019-01-24T16:46:08.938Z,-1.10
2019-01-24T16:51:12.331Z,-1.10
2019-01-24T16:56:15.711Z,-1.20
2019-01-24T17:01:19.116Z,-1.20
2019-01-24T17:06:22.519Z,-1.20
2019-01-24T17:11:25.906Z,-1.20
2019-01-24T17:16:29.306Z,-1.30
2019-01-24T17:21:32.763Z,-1.30
2019-01-24T17:26:36.161Z,-1.30
2019-01-24T17:31:39.561Z,-1.30
2019-01-24T17:36:42.951Z,-1.40
2019-01-24T17:41:46.360Z,-1.40
2019-01-24T17:46:49.743Z,-1.50
2019-01-24T17:51:53.127Z,-1.50
2019-01-24T17:56:56.527Z,-1.50
2019-01-24T18:01:59.991Z,-1.50
2019-01-24T18:07:03.377Z,-1.50
2019-01-24T18:12:06.777Z,-1.50
2019-01-24T18:17:10.231Z,-1.50
2019-01-24T18:22:13.607Z,-1.60
2019-01-24T18:27:16.991Z,-1.60
2019-01-24T18:32:20.383Z,-1.60
2019-01-24T18:37:23.767Z,-1.60
2019-01-24T18:42:27.155Z,-1.60
2019-01-24T18:47:30.544Z,-1.60
2019-01-24T18:52:33.932Z,-1.60
2019-01-24T18:57:37.336Z,-1.70
2019-01-24T19:02:40.744Z,-1.70
2019-01-24T19:07:44.140Z,-1.70
2019-01-24T19:12:47.556Z,-1.70
2019-01-24T19:17:51.077Z,-1.70
2019-01-24T19:22:54.465Z,-1.80
2019-01-24T19:27:57.859Z,-1.70
2019-01-24T19:33:01.419Z,-1.70
2019-01-24T19:38:05.167Z,-1.80
2019-01-24T19:43:08.671Z,-1.80
2019-01-24T19:48:12.241Z,-1.80
2019-01-24T19:53:15.616Z,-1.80
2019-01-24T19:58:19.073Z,-1.80
2019-01-24T20:03:22.455Z,-1.80
2019-01-24T20:08:25.839Z,-1.80
2019-01-24T20:13:29.218Z,-1.80
2019-01-24T20:18:32.619Z,-1.80
2019-01-24T20:23:36.009Z,-1.80
2019-01-24T20:28:39.399Z,-1.80
2019-01-24T20:33:42.783Z,-1.80
2019-01-24T20:38:46.217Z,-1.80
2019-01-24T20:43:49.645Z,-1.80
2019-01-24T20:48:53.203Z,-1.80
2019-01-24T20:53:56.592Z,-1.80
2019-01-24T20:58:59.984Z,-1.80
2019-01-24T21:04:03.543Z,-1.90
2019-01-24T21:09:14.477Z,-1.90
2019-01-24T21:14:13.076Z,-1.90
2019-01-24T21:19:16.487Z,-1.90
2019-01-24T21:24:19.883Z,-1.80
2019-01-24T21:29:23.276Z,-1.80
2019-01-24T21:34:26.739Z,-1.90
2019-01-24T21:39:30.100Z,-1.90
2019-01-24T21:44:33.668Z,-1.90
2019-01-24T21:49:37.104Z,-1.90
2019-01-24T21:54:40.507Z,-1.90
2019-01-24T21:59:43.895Z,-1.90
2019-01-24T22:04:47.343Z,-1.90
2019-01-24T22:09:50.720Z,-1.90
2019-01-24T22:14:54.119Z,-1.90
2019-01-24T22:19:57.510Z,-1.90
2019-01-24T22:25:00.911Z,-1.90
2019-01-24T22:30:07.377Z,-1.90
2019-01-24T22:35:10.832Z,-1.90
2019-01-24T22:40:15.151Z,-2.00
2019-01-24T22:45:26.106Z,-2.00
2019-01-24T22:50:29.498Z,-1.90
2019-01-24T22:55:32.895Z,-2.00
2019-01-24T23:00:55.024Z,-1.90
2019-01-24T23:05:58.491Z,-2.00
2019-01-24T23:11:01.977Z,-2.00
2019-01-24T23:16:05.824Z,-2.00
2019-01-24T23:21:09.197Z,-2.00
2019-01-24T23:26:12.602Z,-2.00
2019-01-24T23:31:15.992Z,-2.00
2019-01-24T23:36:19.455Z,-2.00
2019-01-24T23:41:22.856Z,-2.00
2019-01-24T23:46:26.263Z,-2.00
2019-01-24T23:51:29.697Z,-2.00
2019-01-24T23:56:33.128Z,-2.10
